Time;durP1;ratioP1;P1;durP2;ratioP2;P2;SDS_P1;SDS_P2;PMS_P1;PMS_P2;Temp;Humidity;BMP_temperature;BMP_pressure;BME280_temperature;BME280_humidity;BME280_pressure;Samples;Min_cycle;Max_cycle;Signal;HPM_P1;HPM_P2
2021/01/19 00:00:45;;;;;;;5.93;2.30;;;;;;;;;;5011781;28;20077;-69
2021/01/19 00:03:11;;;;;;;2.67;1.88;;;;;;;;;;5011581;28;20111;-69
2021/01/19 00:05:37;;;;;;;4.13;2.42;;;;;;;;;;5011340;28;20053;-69
2021/01/19 00:08:03;;;;;;;5.32;2.35;;;;;;;;;;5011213;28;20046;-69
2021/01/19 00:10:29;;;;;;;3.90;2.45;;;;;;;;;;5011545;28;20497;-69
2021/01/19 00:12:55;;;;;;;3.95;1.98;;;;;;;;;;5011365;28;20116;-69
2021/01/19 00:15:21;;;;;;;3.53;2.42;;;;;;;;;;5011251;28;20562;-69
2021/01/19 00:17:47;;;;;;;3.58;2.25;;;;;;;;;;5014794;28;20053;-69
2021/01/19 00:20:13;;;;;;;11.07;4.07;;;;;;;;;;5015130;28;20054;-69
2021/01/19 00:22:39;;;;;;;4.65;2.00;;;;;;;;;;5015203;28;20119;-69
2021/01/19 00:25:06;;;;;;;3.58;2.22;;;;;;;;;;5014895;28;20488;-69
2021/01/19 00:27:32;;;;;;;7.78;2.53;;;;;;;;;;5014984;28;20092;-69
2021/01/19 00:29:58;;;;;;;4.35;2.22;;;;;;;;;;5014821;28;20061;-69
2021/01/19 00:32:24;;;;;;;2.65;1.90;;;;;;;;;;5015100;28;20050;-68
2021/01/19 00:34:50;;;;;;;3.10;1.95;;;;;;;;;;5014899;28;20376;-69
2021/01/19 00:37:16;;;;;;;7.28;2.10;;;;;;;;;;5014426;28;20550;-68
2021/01/19 00:39:42;;;;;;;4.00;2.38;;;;;;;;;;5014855;28;20467;-69
2021/01/19 00:42:09;;;;;;;5.22;2.08;;;;;;;;;;5014664;28;20189;-69
2021/01/19 00:44:35;;;;;;;3.40;2.03;;;;;;;;;;5014718;28;20104;-69
2021/01/19 00:47:01;;;;;;;3.45;1.83;;;;;;;;;;5014280;28;20108;-69
2021/01/19 00:49:27;;;;;;;5.28;2.03;;;;;;;;;;5014614;28;20050;-69
2021/01/19 00:51:53;;;;;;;4.25;1.92;;;;;;;;;;5014811;28;20050;-69
2021/01/19 00:54:19;;;;;;;4.00;2.00;;;;;;;;;;5013200;28;20089;-69
2021/01/19 00:56:45;;;;;;;3.40;1.95;;;;;;;;;;5014361;28;20104;-68
2021/01/19 00:59:11;;;;;;;4.18;2.33;;;;;;;;;;5014183;28;20104;-69
2021/01/19 01:01:48;;;;;;;4.82;2.25;;;;;;;;;;5014526;28;20133;-69
2021/01/19 01:04:14;;;;;;;4.57;1.95;;;;;;;;;;5014112;28;20050;-69
2021/01/19 01:06:40;;;;;;;3.70;3.00;;;;;;;;;;5014161;28;20127;-69
2021/01/19 01:09:07;;;;;;;3.55;2.10;;;;;;;;;;5014181;28;20104;-69
2021/01/19 01:11:38;;;;;;;6.53;2.15;;;;;;;;;;5014187;28;20563;-69
2021/01/19 01:14:05;;;;;;;4.30;2.20;;;;;;;;;;5014134;28;20080;-69
2021/01/19 01:16:31;;;;;;;3.80;2.10;;;;;;;;;;5013679;28;20570;-69
2021/01/19 01:18:57;;;;;;;4.20;2.13;;;;;;;;;;5012712;28;20093;-69
2021/01/19 01:21:23;;;;;;;4.13;2.20;;;;;;;;;;5014156;28;20120;-69
2021/01/19 01:23:49;;;;;;;4.70;2.20;;;;;;;;;;5014125;28;20115;-69
2021/01/19 01:26:20;;;;;;;4.28;2.03;;;;;;;;;;5012338;28;20497;-69
2021/01/19 01:28:47;;;;;;;3.92;1.60;;;;;;;;;;5012482;28;20058;-69
2021/01/19 01:31:18;;;;;;;5.53;1.67;;;;;;;;;;5012399;28;20080;-69
2021/01/19 01:33:44;;;;;;;2.58;1.77;;;;;;;;;;5012607;28;20081;-68
2021/01/19 01:36:10;;;;;;;3.00;2.50;;;;;;;;;;5013487;28;20046;-69
2021/01/19 01:38:36;;;;;;;3.22;2.03;;;;;;;;;;5013663;28;20057;-69
2021/01/19 01:41:03;;;;;;;4.78;2.70;;;;;;;;;;5013615;28;20464;-69
2021/01/19 01:43:29;;;;;;;3.38;2.30;;;;;;;;;;5013725;28;20057;-69
2021/01/19 01:45:56;;;;;;;3.47;1.80;;;;;;;;;;5013336;28;20057;-69
2021/01/19 01:48:22;;;;;;;4.75;1.67;;;;;;;;;;5013491;28;20137;-69
2021/01/19 01:50:48;;;;;;;4.30;2.47;;;;;;;;;;5013811;28;20333;-69
2021/01/19 01:53:15;;;;;;;3.72;1.85;;;;;;;;;;5012454;28;20050;-68
2021/01/19 01:55:41;;;;;;;4.88;2.10;;;;;;;;;;5013290;28;20053;-69
2021/01/19 01:58:07;;;;;;;3.38;1.92;;;;;;;;;;5011727;28;20109;-69
2021/01/19 02:00:33;;;;;;;2.72;1.67;;;;;;;;;;5012274;28;20101;-69
2021/01/19 02:03:00;;;;;;;3.95;1.95;;;;;;;;;;5013146;28;20104;-69
2021/01/19 02:05:26;;;;;;;3.75;2.03;;;;;;;;;;5013116;28;20054;-69
2021/01/19 02:08:05;;;;;;;3.53;2.00;;;;;;;;;;5013051;28;20068;-69
2021/01/19 02:10:35;;;;;;;3.17;2.15;;;;;;;;;;4996359;28;20092;-69
2021/01/19 02:13:19;;;;;;;5.40;2.30;;;;;;;;;;5011877;28;20053;-69
2021/01/19 02:15:50;;;;;;;2.83;1.98;;;;;;;;;;5012949;28;20050;-70
2021/01/19 02:18:52;;;;;;;3.75;2.03;;;;;;;;;;5011742;28;20050;-69
2021/01/19 02:21:36;;;;;;;5.65;2.08;;;;;;;;;;5012230;28;20081;-69
2021/01/19 02:24:14;;;;;;;5.50;2.22;;;;;;;;;;5012766;28;20050;-69
2021/01/19 02:26:59;;;;;;;2.75;1.90;;;;;;;;;;5012749;28;20049;-69
2021/01/19 02:29:37;;;;;;;4.05;1.98;;;;;;;;;;5011299;28;20056;-69
2021/01/19 02:32:07;;;;;;;4.43;2.35;;;;;;;;;;5012639;28;20062;-69
2021/01/19 02:35:07;;;;;;;4.90;1.92;;;;;;;;;;5011829;28;20085;-69
2021/01/19 02:38:18;;;;;;;4.82;2.60;;;;;;;;;;4979370;28;20555;-69
2021/01/19 02:40:44;;;;;;;3.35;2.15;;;;;;;;;;5010851;28;20049;-69
2021/01/19 02:43:12;;;;;;;3.78;1.90;;;;;;;;;;5011323;28;20046;-69
2021/01/19 02:45:38;;;;;;;5.85;2.42;;;;;;;;;;5011245;28;20082;-69
2021/01/19 02:48:05;;;;;;;3.75;1.90;;;;;;;;;;5012296;28;20045;-69
2021/01/19 02:50:32;;;;;;;3.08;2.22;;;;;;;;;;5012599;28;20053;-68
2021/01/19 02:52:59;;;;;;;4.88;2.30;;;;;;;;;;5012221;28;20058;-69
2021/01/19 02:55:26;;;;;;;4.82;1.50;;;;;;;;;;4994964;28;20416;-69
2021/01/19 02:58:24;;;;;;;2.38;1.83;;;;;;;;;;5011270;28;20073;-69
2021/01/19 03:01:02;;;;;;;3.05;1.88;;;;;;;;;;5011167;28;20147;-70
2021/01/19 03:03:36;;;;;;;2.67;2.08;;;;;;;;;;5012318;28;20149;-69
2021/01/19 03:06:10;;;;;;;7.65;2.63;;;;;;;;;;5011946;28;20050;-69
2021/01/19 03:08:38;;;;;;;4.30;2.15;;;;;;;;;;5012025;28;20046;-69
2021/01/19 03:11:04;;;;;;;3.67;2.40;;;;;;;;;;5012093;28;20057;-69
2021/01/19 03:13:30;;;;;;;6.65;2.00;;;;;;;;;;5012333;28;20096;-69
2021/01/19 03:16:24;;;;;;;4.90;1.85;;;;;;;;;;5011859;28;20639;-69
2021/01/19 03:18:51;;;;;;;2.58;2.20;;;;;;;;;;5011788;28;20054;-69
2021/01/19 03:21:17;;;;;;;4.15;1.80;;;;;;;;;;5010745;28;20053;-69
2021/01/19 03:23:43;;;;;;;2.67;2.00;;;;;;;;;;5012048;28;20078;-69
2021/01/19 03:26:09;;;;;;;3.38;1.83;;;;;;;;;;5011753;28;20064;-69
2021/01/19 03:28:35;;;;;;;2.85;2.03;;;;;;;;;;5011886;28;20042;-69
2021/01/19 03:31:02;;;;;;;4.93;2.58;;;;;;;;;;5011716;28;20104;-69
2021/01/19 03:33:29;;;;;;;3.78;1.80;;;;;;;;;;5012241;28;20405;-69
2021/01/19 03:35:55;;;;;;;5.70;2.05;;;;;;;;;;5011920;28;20058;-69
2021/01/19 03:38:22;;;;;;;2.00;1.80;;;;;;;;;;5011684;28;20457;-69
2021/01/19 03:40:48;;;;;;;2.10;1.73;;;;;;;;;;5011911;28;20053;-69
2021/01/19 03:43:14;;;;;;;4.53;2.25;;;;;;;;;;5011777;28;20100;-69
2021/01/19 03:45:40;;;;;;;3.35;1.90;;;;;;;;;;5011552;28;20045;-69
2021/01/19 03:48:06;;;;;;;3.55;1.95;;;;;;;;;;5011534;28;20073;-69
2021/01/19 03:50:33;;;;;;;2.60;2.00;;;;;;;;;;5013481;28;20096;-69
2021/01/19 03:52:59;;;;;;;6.30;2.25;;;;;;;;;;5015584;28;20061;-69
2021/01/19 03:55:26;;;;;;;3.58;1.70;;;;;;;;;;5015509;28;20096;-69
2021/01/19 03:57:52;;;;;;;5.43;1.90;;;;;;;;;;5015290;28;20041;-69
2021/01/19 04:00:18;;;;;;;4.80;1.50;;;;;;;;;;5015457;28;20107;-68
2021/01/19 04:02:44;;;;;;;3.35;2.13;;;;;;;;;;5015586;28;20080;-69
2021/01/19 04:05:11;;;;;;;6.78;2.63;;;;;;;;;;5015307;28;20046;-69
2021/01/19 04:07:40;;;;;;;4.15;1.90;;;;;;;;;;5015228;28;20046;-69
2021/01/19 04:10:10;;;;;;;5.40;2.40;;;;;;;;;;5015279;28;20513;-69
2021/01/19 04:12:37;;;;;;;4.32;2.08;;;;;;;;;;5015495;28;20065;-69
2021/01/19 04:15:06;;;;;;;3.55;2.08;;;;;;;;;;5015322;28;20053;-69
2021/01/19 04:17:32;;;;;;;4.60;2.17;;;;;;;;;;5014975;28;20053;-69
2021/01/19 04:19:58;;;;;;;5.18;1.85;;;;;;;;;;5015051;28;20053;-68
2021/01/19 04:22:27;;;;;;;2.70;2.05;;;;;;;;;;5015294;28;20050;-69
2021/01/19 04:24:53;;;;;;;4.60;1.70;;;;;;;;;;5015081;28;20108;-69
2021/01/19 04:27:19;;;;;;;3.15;1.80;;;;;;;;;;4976553;28;20540;-69
2021/01/19 04:29:45;;;;;;;2.47;1.58;;;;;;;;;;4976614;28;20054;-69
2021/01/19 04:32:12;;;;;;;2.85;1.90;;;;;;;;;;5014929;28;20054;-69
2021/01/19 04:34:38;;;;;;;3.10;2.00;;;;;;;;;;5014976;28;20119;-69
2021/01/19 04:37:04;;;;;;;3.65;2.08;;;;;;;;;;5014435;28;20046;-69
2021/01/19 04:39:30;;;;;;;3.25;1.77;;;;;;;;;;5014875;28;20049;-69
2021/01/19 04:41:56;;;;;;;5.28;2.10;;;;;;;;;;5014784;28;20096;-69
2021/01/19 04:44:24;;;;;;;3.38;2.30;;;;;;;;;;5014883;28;20053;-69
2021/01/19 04:46:50;;;;;;;5.07;2.10;;;;;;;;;;5013169;28;20276;-69
2021/01/19 04:49:17;;;;;;;3.42;2.13;;;;;;;;;;4997162;28;20088;-69
2021/01/19 04:51:46;;;;;;;5.45;2.22;;;;;;;;;;5014635;28;20061;-69
2021/01/19 04:54:17;;;;;;;4.07;1.70;;;;;;;;;;5014478;28;20054;-69
2021/01/19 04:57:03;;;;;;;3.78;1.73;;;;;;;;;;5014428;28;20464;-69
2021/01/19 04:59:29;;;;;;;2.78;1.67;;;;;;;;;;5013365;28;20077;-70
2021/01/19 05:01:55;;;;;;;6.07;1.48;;;;;;;;;;4996088;28;20108;-70
2021/01/19 05:04:46;;;;;;;4.10;1.90;;;;;;;;;;5013858;28;20073;-69
2021/01/19 05:07:30;;;;;;;4.75;2.13;;;;;;;;;;5013986;28;20076;-70
2021/01/19 05:10:06;;;;;;;3.97;2.42;;;;;;;;;;5014344;28;20421;-69
2021/01/19 05:12:43;;;;;;;6.35;3.15;;;;;;;;;;5014593;28;20644;-69
2021/01/19 05:15:14;;;;;;;7.53;3.50;;;;;;;;;;5012946;28;20103;-69
2021/01/19 05:17:41;;;;;;;3.65;2.20;;;;;;;;;;5014131;28;20104;-69
2021/01/19 05:20:11;;;;;;;3.40;1.83;;;;;;;;;;5014028;28;20054;-69
2021/01/19 05:22:37;;;;;;;4.53;2.00;;;;;;;;;;5014157;28;20141;-69
2021/01/19 05:25:04;;;;;;;9.40;3.00;;;;;;;;;;5013702;28;20508;-69
2021/01/19 05:27:30;;;;;;;6.63;2.42;;;;;;;;;;5013760;28;20130;-70
2021/01/19 05:30:01;;;;;;;3.72;2.05;;;;;;;;;;5013822;28;20484;-69
2021/01/19 05:32:36;;;;;;;2.85;1.90;;;;;;;;;;5013930;28;20049;-69
2021/01/19 05:35:13;;;;;;;5.90;3.20;;;;;;;;;;5013678;28;20077;-70
2021/01/19 05:37:41;;;;;;;4.18;2.38;;;;;;;;;;5013843;28;20057;-69
2021/01/19 05:40:08;;;;;;;3.88;2.28;;;;;;;;;;5013574;28;20139;-69
2021/01/19 05:42:35;;;;;;;4.97;2.38;;;;;;;;;;5013620;28;20132;-70
2021/01/19 05:45:08;;;;;;;5.85;2.08;;;;;;;;;;5012526;28;20112;-69
2021/01/19 05:47:34;;;;;;;5.00;2.25;;;;;;;;;;5013474;28;20489;-70
2021/01/19 05:50:00;;;;;;;5.10;2.50;;;;;;;;;;5012059;28;20053;-69
2021/01/19 05:52:31;;;;;;;7.13;2.83;;;;;;;;;;5013514;28;20116;-69
2021/01/19 05:54:58;;;;;;;7.63;2.78;;;;;;;;;;5013421;28;20049;-69
2021/01/19 05:57:25;;;;;;;7.15;2.95;;;;;;;;;;5013303;28;20468;-70
2021/01/19 05:59:58;;;;;;;9.68;3.30;;;;;;;;;;4995536;28;20567;-70
2021/01/19 06:02:38;;;;;;;8.30;4.25;;;;;;;;;;5012214;28;20417;-69
2021/01/19 06:05:15;;;;;;;3.83;2.15;;;;;;;;;;5013040;28;20054;-69
2021/01/19 06:07:44;;;;;;;6.80;2.42;;;;;;;;;;5013056;28;20046;-69
2021/01/19 06:10:14;;;;;;;3.97;2.42;;;;;;;;;;5012912;28;20569;-69
2021/01/19 06:12:40;;;;;;;5.65;2.28;;;;;;;;;;5013141;28;20512;-69
2021/01/19 06:15:07;;;;;;;5.03;2.30;;;;;;;;;;5012929;28;20101;-69
2021/01/19 06:17:34;;;;;;;4.25;2.30;;;;;;;;;;5012848;28;20085;-69
2021/01/19 06:20:00;;;;;;;6.00;2.47;;;;;;;;;;5012781;28;20456;-69
2021/01/19 06:22:28;;;;;;;3.72;2.20;;;;;;;;;;5013016;28;20580;-69
2021/01/19 06:24:58;;;;;;;3.22;1.98;;;;;;;;;;5012998;28;20054;-69
2021/01/19 06:27:25;;;;;;;4.47;2.53;;;;;;;;;;5012787;28;20046;-69
2021/01/19 06:29:57;;;;;;;5.38;2.53;;;;;;;;;;5012486;28;20048;-69
2021/01/19 06:32:24;;;;;;;4.93;2.42;;;;;;;;;;5003641;28;20112;-69
2021/01/19 06:34:50;;;;;;;4.18;2.42;;;;;;;;;;4992968;28;20560;-70
2021/01/19 06:37:25;;;;;;;6.20;2.40;;;;;;;;;;4991729;28;20097;-69
2021/01/19 06:39:59;;;;;;;3.20;2.42;;;;;;;;;;4992970;28;20148;-69
2021/01/19 06:42:30;;;;;;;3.65;2.35;;;;;;;;;;4993012;28;20512;-70
2021/01/19 06:45:00;;;;;;;4.47;2.42;;;;;;;;;;4992853;28;20496;-69
2021/01/19 06:47:26;;;;;;;2.72;2.03;;;;;;;;;;4992690;28;20113;-70
2021/01/19 06:49:57;;;;;;;3.95;2.15;;;;;;;;;;5004334;28;20100;-69
2021/01/19 06:52:23;;;;;;;3.55;2.10;;;;;;;;;;5012799;28;20096;-70
2021/01/19 06:54:52;;;;;;;6.80;2.65;;;;;;;;;;4994842;28;20054;-69
2021/01/19 06:57:39;;;;;;;3.97;2.63;;;;;;;;;;5012141;28;20046;-69
2021/01/19 07:00:31;;;;;;;4.15;3.22;;;;;;;;;;5012022;28;20137;-69
2021/01/19 07:02:57;;;;;;;5.30;3.35;;;;;;;;;;5012257;28;20478;-69
2021/01/19 07:05:24;;;;;;;4.32;2.22;;;;;;;;;;5010736;28;20104;-69
2021/01/19 07:08:11;;;;;;;4.07;2.42;;;;;;;;;;5012123;28;20049;-69
2021/01/19 07:10:50;;;;;;;3.72;2.22;;;;;;;;;;4978639;28;20461;-69
2021/01/19 07:13:25;;;;;;;5.32;2.33;;;;;;;;;;4991392;28;20456;-69
2021/01/19 07:15:57;;;;;;;6.45;2.25;;;;;;;;;;4991017;28;20050;-70
2021/01/19 07:18:42;;;;;;;6.20;3.35;;;;;;;;;;4992410;28;20490;-69
2021/01/19 07:21:09;;;;;;;5.55;3.15;;;;;;;;;;4992383;28;20406;-69
2021/01/19 07:23:48;;;;;;;7.63;3.17;;;;;;;;;;4992329;28;20501;-69
2021/01/19 07:26:30;;;;;;;3.65;2.70;;;;;;;;;;4991706;28;20124;-69
2021/01/19 07:28:56;;;;;;;5.28;2.78;;;;;;;;;;4994122;28;20120;-68
2021/01/19 07:31:25;;;;;;;5.57;2.67;;;;;;;;;;5011929;28;20104;-70
2021/01/19 07:33:56;;;;;;;4.13;2.35;;;;;;;;;;5010664;28;20050;-70
2021/01/19 07:36:24;;;;;;;9.80;4.00;;;;;;;;;;5011780;28;20425;-70
2021/01/19 07:38:52;;;;;;;7.35;3.13;;;;;;;;;;5009618;28;20046;-69
2021/01/19 07:41:29;;;;;;;5.47;2.67;;;;;;;;;;4992329;28;20113;-71
2021/01/19 07:43:55;;;;;;;5.70;2.70;;;;;;;;;;4992278;28;20061;-70
2021/01/19 07:46:38;;;;;;;8.60;2.78;;;;;;;;;;4992422;28;20074;-70
2021/01/19 07:49:06;;;;;;;4.57;2.53;;;;;;;;;;4992125;28;20046;-70
2021/01/19 07:51:47;;;;;;;3.40;2.10;;;;;;;;;;4992246;28;20057;-70
2021/01/19 07:54:25;;;;;;;3.70;2.35;;;;;;;;;;4992211;28;20054;-70
2021/01/19 07:56:52;;;;;;;3.58;2.30;;;;;;;;;;4991842;28;20497;-70
2021/01/19 07:59:19;;;;;;;5.28;2.58;;;;;;;;;;4991982;28;20137;-69
2021/01/19 08:01:55;;;;;;;5.57;3.58;;;;;;;;;;4992127;28;20109;-70
2021/01/19 08:04:29;;;;;;;5.43;2.65;;;;;;;;;;4992061;28;20077;-70
2021/01/19 08:06:56;;;;;;;8.25;2.78;;;;;;;;;;4991591;28;20576;-69
2021/01/19 08:09:22;;;;;;;4.13;2.47;;;;;;;;;;4997937;28;20108;-70
2021/01/19 08:12:02;;;;;;;12.13;3.10;;;;;;;;;;5011555;28;20124;-70
2021/01/19 08:14:44;;;;;;;4.38;1.98;;;;;;;;;;5011781;28;20054;-70
2021/01/19 08:17:11;;;;;;;4.65;2.05;;;;;;;;;;5011311;28;20104;-70
2021/01/19 08:19:39;;;;;;;5.15;2.40;;;;;;;;;;5010855;28;20046;-70
2021/01/19 08:22:08;;;;;;;5.30;2.95;;;;;;;;;;5011447;28;20053;-70
2021/01/19 08:24:41;;;;;;;5.28;2.88;;;;;;;;;;5011598;28;20046;-70
2021/01/19 08:27:08;;;;;;;5.88;2.15;;;;;;;;;;5010707;28;20520;-70
2021/01/19 08:29:36;;;;;;;4.55;2.17;;;;;;;;;;4991734;28;20058;-70
2021/01/19 08:32:03;;;;;;;7.28;2.42;;;;;;;;;;4991769;28;20109;-70
2021/01/19 08:34:30;;;;;;;7.22;2.45;;;;;;;;;;4991892;28;20117;-70
2021/01/19 08:36:57;;;;;;;4.97;2.60;;;;;;;;;;4992010;28;20501;-70
2021/01/19 08:39:23;;;;;;;5.90;2.83;;;;;;;;;;4995513;28;20073;-70
2021/01/19 08:41:52;;;;;;;4.68;2.00;;;;;;;;;;4995142;28;20101;-70
2021/01/19 08:44:31;;;;;;;4.93;2.33;;;;;;;;;;4995298;28;20054;-70
2021/01/19 08:46:57;;;;;;;5.95;2.22;;;;;;;;;;4994646;28;20074;-70
2021/01/19 08:49:23;;;;;;;6.03;2.47;;;;;;;;;;4993775;28;20054;-70
2021/01/19 08:51:50;;;;;;;7.88;2.40;;;;;;;;;;4994972;28;20498;-71
2021/01/19 08:54:16;;;;;;;5.32;2.60;;;;;;;;;;4993736;28;20101;-71
2021/01/19 08:56:43;;;;;;;3.33;2.30;;;;;;;;;;4992968;28;20078;-71
2021/01/19 08:59:13;;;;;;;6.00;2.20;;;;;;;;;;4991432;28;20054;-70
2021/01/19 09:01:50;;;;;;;4.85;2.70;;;;;;;;;;4992959;28;20054;-70
2021/01/19 09:04:26;;;;;;;5.70;2.55;;;;;;;;;;4993107;28;20145;-70
2021/01/19 09:06:53;;;;;;;4.38;2.55;;;;;;;;;;4992526;28;20049;-70
2021/01/19 09:09:22;;;;;;;3.83;2.67;;;;;;;;;;4992422;28;20054;-71
2021/01/19 09:11:51;;;;;;;4.68;2.33;;;;;;;;;;4992920;28;20466;-71
2021/01/19 09:14:23;;;;;;;4.45;2.50;;;;;;;;;;4993229;28;20580;-71
2021/01/19 09:16:50;;;;;;;4.97;2.47;;;;;;;;;;4992818;28;20113;-71
2021/01/19 09:19:16;;;;;;;6.85;2.72;;;;;;;;;;4992751;28;20047;-71
2021/01/19 09:21:42;;;;;;;7.82;3.33;;;;;;;;;;4992769;28;20058;-71
2021/01/19 09:24:17;;;;;;;3.97;2.10;;;;;;;;;;4992167;28;20436;-71
2021/01/19 09:26:59;;;;;;;9.95;3.22;;;;;;;;;;4991421;28;20395;-71
2021/01/19 09:29:33;;;;;;;3.78;2.65;;;;;;;;;;4992938;28;20047;-71
2021/01/19 09:32:03;;;;;;;7.40;2.60;;;;;;;;;;4992437;28;20108;-71
2021/01/19 09:34:33;;;;;;;5.07;2.38;;;;;;;;;;4992623;28;20205;-71
2021/01/19 09:36:59;;;;;;;4.75;2.83;;;;;;;;;;4993350;28;20062;-71
2021/01/19 09:39:26;;;;;;;4.05;2.38;;;;;;;;;;4991062;28;20074;-71
2021/01/19 09:41:58;;;;;;;4.90;2.50;;;;;;;;;;4990857;28;20046;-70
2021/01/19 09:44:24;;;;;;;5.47;2.67;;;;;;;;;;4990738;28;20058;-71
2021/01/19 09:46:52;;;;;;;7.07;2.88;;;;;;;;;;5000754;28;20100;-71
2021/01/19 09:49:22;;;;;;;6.57;3.50;;;;;;;;;;4979568;28;20050;-70
2021/01/19 09:51:48;;;;;;;4.65;3.13;;;;;;;;;;4974602;28;20151;-71
2021/01/19 09:54:21;;;;;;;6.22;3.53;;;;;;;;;;4991762;28;20086;-71
2021/01/19 09:56:59;;;;;;;7.75;3.38;;;;;;;;;;4991734;28;20073;-71
2021/01/19 09:59:30;;;;;;;8.43;3.60;;;;;;;;;;4990386;28;20498;-71
2021/01/19 10:01:58;;;;;;;9.50;4.00;;;;;;;;;;4991080;28;20054;-71
2021/01/19 10:04:26;;;;;;;5.72;3.63;;;;;;;;;;4991721;28;20121;-70
2021/01/19 10:07:05;;;;;;;6.72;4.10;;;;;;;;;;4999119;28;20501;-71
2021/01/19 10:09:32;;;;;;;9.32;3.90;;;;;;;;;;5011121;28;20049;-71
2021/01/19 10:12:02;;;;;;;7.68;3.50;;;;;;;;;;5011326;28;20050;-71
2021/01/19 10:14:30;;;;;;;5.07;3.55;;;;;;;;;;5010798;28;20421;-71
2021/01/19 10:16:57;;;;;;;4.63;2.70;;;;;;;;;;5001752;28;20065;-71
2021/01/19 10:19:30;;;;;;;5.53;2.85;;;;;;;;;;4991549;28;20129;-70
2021/01/19 10:21:57;;;;;;;;;;;;;;;;;;4992213;28;20058;-71
2021/01/19 10:24:24;;;;;;;6.90;3.15;;;;;;;;;;4991714;28;19926;-71
2021/01/19 10:27:07;;;;;;;5.90;2.92;;;;;;;;;;4991265;28;20093;-71
2021/01/19 10:29:37;;;;;;;;;;;;;;;;;;4991155;28;20498;-71
2021/01/19 10:32:11;;;;;;;5.50;2.97;;;;;;;;;;4990999;28;20377;-71
2021/01/19 10:34:42;;;;;;;5.82;3.55;;;;;;;;;;4991282;28;20509;-71
2021/01/19 10:37:09;;;;;;;4.95;2.90;;;;;;;;;;5000102;28;20093;-70
2021/01/19 10:39:35;;;;;;;5.18;3.13;;;;;;;;;;4993446;28;20057;-71
2021/01/19 10:42:01;;;;;;;4.85;2.72;;;;;;;;;;4992347;28;20050;-71
2021/01/19 10:44:27;;;;;;;7.60;3.42;;;;;;;;;;5010789;28;20115;-70
2021/01/19 10:46:58;;;;;;;5.65;3.15;;;;;;;;;;5010203;28;20519;-71
2021/01/19 10:49:30;;;;;;;5.40;3.40;;;;;;;;;;5009267;28;20460;-70
2021/01/19 10:51:57;;;;;;;6.68;4.22;;;;;;;;;;5010372;28;20103;-71
2021/01/19 10:54:24;;;;;;;7.05;3.67;;;;;;;;;;5010025;28;20050;-70
2021/01/19 10:57:04;;;;;;;8.45;3.65;;;;;;;;;;5010157;28;20058;-71
2021/01/19 10:59:31;;;;;;;6.03;3.45;;;;;;;;;;5009536;28;20045;-70
2021/01/19 11:02:01;;;;;;;6.95;2.95;;;;;;;;;;5010203;28;20061;-70
2021/01/19 11:04:27;;;;;;;5.90;3.30;;;;;;;;;;5010138;28;20119;-70
2021/01/19 11:06:53;;;;;;;7.03;4.20;;;;;;;;;;5009345;28;20496;-70
2021/01/19 11:09:19;;;;;;;7.10;3.40;;;;;;;;;;5010009;28;20096;-72
2021/01/19 11:11:45;;;;;;;8.10;4.00;;;;;;;;;;4983948;28;20089;-70
2021/01/19 11:14:11;;;;;;;4.70;2.63;;;;;;;;;;5008199;28;20072;-74
2021/01/19 11:16:42;;;;;;;5.18;3.20;;;;;;;;;;5006967;28;20046;-74
2021/01/19 11:19:13;;;;;;;6.30;3.10;;;;;;;;;;5008893;28;20127;-74
2021/01/19 11:21:40;;;;;;;6.68;3.08;;;;;;;;;;5006683;28;20054;-74
2021/01/19 11:24:07;;;;;;;5.47;2.42;;;;;;;;;;4999671;28;20100;-74
2021/01/19 11:26:37;;;;;;;6.03;3.08;;;;;;;;;;5006400;28;20049;-71
2021/01/19 11:29:05;;;;;;;6.25;3.28;;;;;;;;;;5008628;28;20053;-73
2021/01/19 11:31:31;;;;;;;8.60;4.78;;;;;;;;;;5008258;28;20099;-71
2021/01/19 11:34:03;;;;;;;8.27;4.00;;;;;;;;;;5009176;28;20131;-75
2021/01/19 11:36:33;;;;;;;8.77;3.95;;;;;;;;;;5007743;28;20492;-71
2021/01/19 11:39:00;;;;;;;11.60;5.60;;;;;;;;;;5008868;28;20050;-71
2021/01/19 11:41:27;;;;;;;8.27;3.47;;;;;;;;;;5009565;28;20065;-75
2021/01/19 11:43:54;;;;;;;6.65;3.08;;;;;;;;;;4996967;28;20104;-72
2021/01/19 11:46:25;;;;;;;4.95;2.95;;;;;;;;;;5008100;28;20046;-72
2021/01/19 11:48:53;;;;;;;6.85;2.90;;;;;;;;;;5006690;28;20476;-72
2021/01/19 11:51:20;;;;;;;6.95;3.33;;;;;;;;;;5001574;28;20112;-73
2021/01/19 11:53:48;;;;;;;9.30;3.92;;;;;;;;;;5002468;28;20050;-72
2021/01/19 11:56:15;;;;;;;7.47;3.17;;;;;;;;;;5009483;28;20921;-73
2021/01/19 11:58:42;;;;;;;5.65;3.10;;;;;;;;;;4992520;28;20562;-73
2021/01/19 12:01:08;;;;;;;8.48;2.67;;;;;;;;;;5007657;28;20046;-74
2021/01/19 12:03:35;;;;;;;5.78;2.60;;;;;;;;;;4991833;28;20057;-76
2021/01/19 12:06:01;;;;;;;6.63;2.50;;;;;;;;;;5008550;28;20112;-72
2021/01/19 12:08:27;;;;;;;6.40;2.72;;;;;;;;;;5003946;28;20054;-72
2021/01/19 12:10:53;;;;;;;6.25;3.40;;;;;;;;;;5009449;28;20045;-77
2021/01/19 12:13:19;;;;;;;8.00;3.55;;;;;;;;;;5009689;28;20038;-72
2021/01/19 12:15:45;;;;;;;4.63;2.88;;;;;;;;;;5011963;28;20100;-75
2021/01/19 12:18:12;;;;;;;6.43;3.20;;;;;;;;;;5009168;28;20115;-72
2021/01/19 12:20:38;;;;;;;7.68;3.38;;;;;;;;;;5013113;28;20077;-73
2021/01/19 12:23:04;;;;;;;5.78;3.00;;;;;;;;;;5008477;28;20562;-73
2021/01/19 12:25:31;;;;;;;4.68;2.70;;;;;;;;;;5002889;28;21029;-73
2021/01/19 12:27:57;;;;;;;4.72;3.03;;;;;;;;;;4984547;28;20113;-72
2021/01/19 12:30:24;;;;;;;9.60;3.55;;;;;;;;;;4987181;28;20096;-77
2021/01/19 12:32:52;;;;;;;5.18;2.42;;;;;;;;;;5003891;28;20045;-76
2021/01/19 12:35:19;;;;;;;7.20;2.47;;;;;;;;;;5005514;28;20050;-70
2021/01/19 12:37:45;;;;;;;4.90;2.58;;;;;;;;;;5012580;28;20077;-75
2021/01/19 12:40:12;;;;;;;3.83;2.35;;;;;;;;;;5010237;28;20053;-71
2021/01/19 12:42:38;;;;;;;6.43;2.35;;;;;;;;;;5011092;28;20058;-76
2021/01/19 12:45:05;;;;;;;6.60;2.30;;;;;;;;;;5010157;28;20485;-70
2021/01/19 12:47:33;;;;;;;4.32;2.10;;;;;;;;;;5011186;28;20120;-75
2021/01/19 12:50:00;;;;;;;10.40;4.10;;;;;;;;;;5011291;28;20061;-71
2021/01/19 12:52:26;;;;;;;21.70;8.10;;;;;;;;;;5008369;28;20050;-72
2021/01/19 12:54:53;;;;;;;8.60;4.05;;;;;;;;;;5006341;28;20525;-73
2021/01/19 12:57:19;;;;;;;3.33;2.60;;;;;;;;;;4998946;28;20412;-75
2021/01/19 12:59:45;;;;;;;4.90;2.50;;;;;;;;;;5004847;28;20049;-72
2021/01/19 13:02:12;;;;;;;6.40;3.13;;;;;;;;;;5010549;28;20046;-71
2021/01/19 13:04:39;;;;;;;7.15;3.13;;;;;;;;;;5009407;28;20480;-72
2021/01/19 13:07:07;;;;;;;6.63;3.05;;;;;;;;;;5002633;28;20058;-79
2021/01/19 13:09:34;;;;;;;5.38;2.13;;;;;;;;;;5010811;28;20057;-72
2021/01/19 13:12:00;;;;;;;11.40;3.40;;;;;;;;;;5010375;28;20085;-75
2021/01/19 13:14:27;;;;;;;2.47;2.28;;;;;;;;;;5011510;28;20058;-71
2021/01/19 13:16:56;;;;;;;3.53;2.50;;;;;;;;;;5006560;28;20042;-72
2021/01/19 13:19:23;;;;;;;4.00;2.65;;;;;;;;;;5009293;28;20497;-72
2021/01/19 13:21:50;;;;;;;6.03;3.05;;;;;;;;;;5011169;28;20049;-73
2021/01/19 13:24:16;;;;;;;2.65;1.92;;;;;;;;;;5003704;28;20042;-74
2021/01/19 13:26:43;;;;;;;6.35;3.42;;;;;;;;;;5009082;28;20050;-71
2021/01/19 13:29:09;;;;;;;5.53;2.17;;;;;;;;;;5012833;28;20108;-71
2021/01/19 13:31:35;;;;;;;4.07;2.95;;;;;;;;;;5012983;28;20402;-70
2021/01/19 13:34:02;;;;;;;4.53;1.85;;;;;;;;;;5012819;28;20045;-70
2021/01/19 13:36:29;;;;;;;5.72;2.33;;;;;;;;;;5009573;28;20086;-71
2021/01/19 13:38:55;;;;;;;3.90;1.80;;;;;;;;;;4994563;28;20045;-71
2021/01/19 13:41:22;;;;;;;4.88;2.20;;;;;;;;;;5009488;28;20097;-73
2021/01/19 13:43:48;;;;;;;5.25;2.15;;;;;;;;;;5010772;28;20066;-71
2021/01/19 13:46:16;;;;;;;3.47;1.95;;;;;;;;;;5012398;28;20054;-73
2021/01/19 13:48:42;;;;;;;2.45;1.60;;;;;;;;;;5007987;28;20405;-74
2021/01/19 13:51:12;;;;;;;3.40;1.50;;;;;;;;;;5009226;28;20215;-71
2021/01/19 13:53:40;;;;;;;3.00;2.20;;;;;;;;;;5006410;28;20046;-70
2021/01/19 13:56:07;;;;;;;2.95;1.33;;;;;;;;;;5010778;28;20160;-71
2021/01/19 13:58:34;;;;;;;2.30;1.35;;;;;;;;;;5010361;28;20095;-72
2021/01/19 14:01:01;;;;;;;2.80;1.38;;;;;;;;;;5003815;28;20131;-74
2021/01/19 14:03:28;;;;;;;2.67;1.23;;;;;;;;;;5002582;28;20132;-72
2021/01/19 14:05:54;;;;;;;3.70;1.05;;;;;;;;;;5008571;28;20061;-72
2021/01/19 14:08:20;;;;;;;3.80;1.40;;;;;;;;;;5009519;28;20134;-72
2021/01/19 14:10:46;;;;;;;6.40;2.03;;;;;;;;;;5010156;28;20685;-70
2021/01/19 14:13:13;;;;;;;2.78;1.40;;;;;;;;;;5008745;28;20113;-71
2021/01/19 14:15:39;;;;;;;2.05;1.10;;;;;;;;;;5003163;28;20077;-71
2021/01/19 14:18:05;;;;;;;4.68;1.27;;;;;;;;;;5000904;28;20050;-71
2021/01/19 14:20:31;;;;;;;2.45;1.33;;;;;;;;;;5012827;28;20133;-72
2021/01/19 14:22:57;;;;;;;2.42;1.10;;;;;;;;;;5007592;28;20512;-72
2021/01/19 14:25:24;;;;;;;0.80;0.80;;;;;;;;;;5008052;28;20051;-71
2021/01/19 14:27:50;;;;;;;1.92;0.90;;;;;;;;;;5010032;28;20054;-71
2021/01/19 14:30:16;;;;;;;1.55;0.98;;;;;;;;;;5010262;28;20058;-72
2021/01/19 14:32:46;;;;;;;1.52;0.95;;;;;;;;;;5008970;28;20576;-71
2021/01/19 14:35:12;;;;;;;2.60;1.13;;;;;;;;;;5008795;28;20053;-73
2021/01/19 14:37:42;;;;;;;1.75;0.98;;;;;;;;;;5007152;28;20584;-72
2021/01/19 14:40:09;;;;;;;7.70;1.55;;;;;;;;;;5001911;28;20050;-72
2021/01/19 14:42:36;;;;;;;2.17;1.00;;;;;;;;;;5008604;28;20115;-72
2021/01/19 14:45:05;;;;;;;3.42;1.35;;;;;;;;;;5010232;28;20077;-73
2021/01/19 14:47:31;;;;;;;2.70;1.02;;;;;;;;;;5009471;28;20428;-72
2021/01/19 14:49:57;;;;;;;2.45;1.38;;;;;;;;;;5009131;28;20046;-72
2021/01/19 14:52:25;;;;;;;4.90;1.05;;;;;;;;;;5009644;28;20092;-72
2021/01/19 14:54:55;;;;;;;2.65;1.40;;;;;;;;;;5001748;28;20077;-72